Wahoo, NE

2:48 AM CDT on June 25, 2017 (GMT -0500)
Wahoo Municipal

Weather History for KAHQ - February, 2013

Change the Weather History Date:

Monday, February 11, 2013

  Actual Average Record
Temperature  
Mean Temperature 30 °F -  
Max Temperature 37 °F 36 °F 63 °F (1976)
Min Temperature 23 °F 15 °F -18 °F (1981)
Degree Days  
Heating Degree Days 35    
Moisture  
Dew Point 23 °F    
Average Humidity 74    
Maximum Humidity 90    
Minimum Humidity 58    
Precipitation  
Precipitation 0.00 in - - ()
Sea Level Pressure  
Sea Level Pressure 30.06 in    
Wind  
Wind Speed 17 mph (NW)    
Max Wind Speed 31 mph    
Max Gust Speed 38 mph    
Visibility 10 miles    
Events      
Averages and records for this station are not official NWS values.
T = Trace of Precipitation, MM = Missing Value Source: NWS Daily Summary

Daily Weather History Graph

Daily Weather History Graph

Search for Another Location

Airport or City:

Trip Planner

Search our weather history database for the weather conditions in past years. The results will help you decide how hot, cold, wet, or windy it might be!

Date:

Astronomy

Feb. 11, 2013 Rise Set
Actual Time 7:25 AM CST 5:55 PM CST
Civil Twilight 6:57 AM CST 6:24 PM CST
Nautical Twilight 6:24 AM CST 6:56 PM CST
Astronomical Twilight 5:52 AM CST 7:28 PM CST
Moon 7:49 AM CST (2/11) 7:55 PM CST (2/11)
Length of Visible Light 11h 27m
Length of Day
10h 30m
Waxing Crescent, 3% of the Moon is Illuminated
Feb 11
Waxing Crescent
Feb 17
First Quarter
Feb 25
Full
Mar 4
Last Quarter
Mar 11
New

Hourly Weather History & Observations

Time (CST) Temp. Windchill Dew Point Humidity Pressure Visibility Wind Dir Wind Speed Gust Speed Precip Events Conditions
12:15 AM 32.0 °F 19.8 °F 24.8 °F 75% 29.83 in 10.0 mi NW 20.7 mph 27.6 mph N/A   Overcast
12:35 AM 32.0 °F 21.6 °F 25.7 °F 78% 29.85 in 10.0 mi WNW 15.0 mph 24.2 mph N/A   Overcast
12:55 AM 32.0 °F 20.5 °F 26.2 °F 79% 29.86 in 10.0 mi NW 18.4 mph 25.3 mph N/A   Overcast
1:15 AM 32.2 °F 18.9 °F 24.8 °F 74% 29.87 in 10.0 mi WNW 25.3 mph 31.1 mph N/A   Overcast
1:35 AM 31.5 °F 17.4 °F 23.5 °F 73% 29.88 in 10.0 mi WNW 27.6 mph 34.5 mph N/A   Scattered Clouds
1:55 AM 31.3 °F 16.4 °F 23.5 °F 73% 29.88 in 10.0 mi WNW 31.1 mph 35.7 mph N/A   Clear
2:15 AM 31.1 °F 16.6 °F 23.7 °F 74% 29.89 in 10.0 mi WNW 28.8 mph 38.0 mph N/A   Scattered Clouds
2:35 AM 31.6 °F 19.3 °F 24.3 °F 74% 29.91 in 10.0 mi NW 20.7 mph 36.8 mph N/A   Mostly Cloudy
3:15 AM 32.0 °F 20.1 °F 24.8 °F 75% 29.92 in 10.0 mi NW 19.6 mph 29.9 mph N/A   Overcast
3:35 AM 31.3 °F 17.7 °F 22.8 °F 71% 29.92 in 10.0 mi NW 25.3 mph 36.8 mph N/A   Mostly Cloudy
3:55 AM 30.6 °F 17.3 °F 22.6 °F 72% 29.93 in 10.0 mi NW 23.0 mph 32.2 mph N/A   Clear
4:15 AM 30.2 °F 18.1 °F 22.6 °F 73% 29.95 in 10.0 mi NW 18.4 mph 31.1 mph N/A   Mostly Cloudy
4:35 AM 30.2 °F 17.4 °F 22.8 °F 74% 29.95 in 10.0 mi NW 20.7 mph 25.3 mph N/A   Overcast
4:55 AM 30.2 °F 18.9 °F 23.0 °F 75% 29.97 in 10.0 mi NW 16.1 mph 26.5 mph N/A   Overcast
5:15 AM 30.6 °F 19.4 °F 23.0 °F 74% 29.99 in 10.0 mi WNW 16.1 mph - N/A   Overcast
5:35 AM 30.7 °F 20.0 °F 23.2 °F 74% 30.00 in 10.0 mi WNW 15.0 mph 20.7 mph N/A   Overcast
5:55 AM 30.7 °F 20.4 °F 23.7 °F 75% 30.00 in 10.0 mi WNW 13.8 mph 26.5 mph N/A   Overcast
6:15 AM 30.7 °F 21.4 °F 23.9 °F 76% 30.02 in 10.0 mi WNW 11.5 mph 16.1 mph N/A   Overcast
6:35 AM 30.2 °F 19.3 °F 23.4 °F 76% 30.02 in 10.0 mi NW 15.0 mph 18.4 mph N/A   Overcast
6:55 AM 30.2 °F 17.4 °F 22.8 °F 74% 30.03 in 10.0 mi WNW 20.7 mph 24.2 mph N/A   Overcast
7:15 AM 29.8 °F 17.3 °F 21.6 °F 71% 30.03 in 10.0 mi WNW 19.6 mph 28.8 mph N/A   Overcast
7:35 AM 29.1 °F 16.4 °F 21.6 °F 73% 30.04 in 10.0 mi NW 19.6 mph 28.8 mph N/A   Mostly Cloudy
7:55 AM 29.1 °F 18.4 °F 22.1 °F 75% 30.04 in 10.0 mi NW 13.8 mph 19.6 mph N/A   Clear
8:15 AM 29.8 °F 19.3 °F 22.1 °F 73% 30.05 in 10.0 mi WNW 13.8 mph - N/A   Clear
8:35 AM 29.8 °F 17.3 °F 21.9 °F 72% 30.06 in 10.0 mi WNW 19.6 mph 23.0 mph N/A   Mostly Cloudy
8:55 AM 29.8 °F 17.0 °F 21.2 °F 70% 30.07 in 10.0 mi NW 20.7 mph 27.6 mph N/A   Overcast
9:15 AM 30.6 °F 18.2 °F 21.7 °F 70% 30.08 in 10.0 mi WNW 19.6 mph 25.3 mph N/A   Mostly Cloudy
9:35 AM 30.9 °F 19.4 °F 21.4 °F 68% 30.09 in 10.0 mi NW 17.3 mph 26.5 mph N/A   Overcast
9:55 AM 31.6 °F 20.7 °F 22.1 °F 68% 30.10 in 10.0 mi NW 16.1 mph 23.0 mph N/A   Overcast
10:15 AM 31.6 °F 20.7 °F 21.7 °F 67% 30.10 in 10.0 mi WNW 16.1 mph 20.7 mph N/A   Overcast
10:35 AM 32.4 °F 20.6 °F 21.7 °F 65% 30.11 in 10.0 mi NW 19.6 mph 23.0 mph N/A   Mostly Cloudy
10:55 AM 32.4 °F 21.3 °F 22.3 °F 66% 30.10 in 10.0 mi NW 17.3 mph 23.0 mph N/A   Mostly Cloudy
11:15 AM 33.1 °F 21.2 °F 22.6 °F 66% 30.10 in 10.0 mi NW 20.7 mph 26.5 mph N/A   Scattered Clouds
11:35 AM 33.3 °F 22.1 °F 22.5 °F 65% 30.12 in 10.0 mi WNW 18.4 mph 25.3 mph N/A   Scattered Clouds
11:55 AM 33.8 °F 23.9 °F 23.2 °F 65% 30.12 in 10.0 mi NW 15.0 mph 20.7 mph N/A   Mostly Cloudy
12:15 PM 34.2 °F 24.4 °F 23.2 °F 64% 30.11 in 10.0 mi WNW 15.0 mph - N/A   Mostly Cloudy
12:35 PM 34.0 °F 25.5 °F 23.0 °F 64% 30.11 in 10.0 mi WNW 11.5 mph 20.7 mph N/A   Mostly Cloudy
12:55 PM 35.8 °F 28.3 °F 24.3 °F 63% 30.11 in 10.0 mi NW 10.4 mph 18.4 mph N/A   Overcast
1:15 PM 35.2 °F 27.1 °F 23.7 °F 63% 30.11 in 10.0 mi WNW 11.5 mph - N/A   Overcast
1:35 PM 34.5 °F 26.7 °F 23.5 °F 64% 30.11 in 10.0 mi WNW 10.4 mph 18.4 mph N/A   Overcast
1:55 PM 35.2 °F 26.2 °F 24.1 °F 64% 30.11 in 10.0 mi WNW 13.8 mph 17.3 mph N/A   Overcast
2:15 PM 35.4 °F 27.3 °F 23.7 °F 62% 30.11 in 10.0 mi WNW 11.5 mph - N/A   Overcast
2:35 PM 35.6 °F 27.1 °F 23.7 °F 62% 30.11 in 10.0 mi WNW 12.7 mph - N/A   Overcast
2:55 PM 36.9 °F 28.2 °F 24.4 °F 61% 30.10 in 10.0 mi WNW 13.8 mph 21.9 mph N/A   Mostly Cloudy
3:15 PM 37.4 °F 30.8 °F 24.4 °F 60% 30.10 in 10.0 mi NW 9.2 mph - N/A   Scattered Clouds
3:35 PM 37.8 °F 31.3 °F 24.6 °F 59% 30.10 in 10.0 mi WNW 9.2 mph - N/A   Mostly Cloudy
3:55 PM 37.9 °F 30.5 °F 24.4 °F 58% 30.10 in 10.0 mi NW 11.5 mph 17.3 mph N/A   Mostly Cloudy
4:55 PM 34.7 °F 26.4 °F 24.8 °F 67% 30.09 in 10.0 mi NNW 11.5 mph - N/A   Clear
5:15 PM 33.4 °F 24.8 °F 24.8 °F 71% 30.10 in 10.0 mi NNW 11.5 mph - N/A   Clear
5:35 PM 32.4 °F 24.6 °F 25.3 °F 75% 30.10 in 10.0 mi North 9.2 mph - N/A   Clear
5:55 PM 31.8 °F 23.3 °F 24.8 °F 75% 30.10 in 10.0 mi North 10.4 mph - N/A   Clear
6:15 PM 30.7 °F 22.0 °F 24.8 °F 79% 30.11 in 10.0 mi North 10.4 mph - N/A   Clear
6:35 PM 30.0 °F 22.4 °F 24.6 °F 80% 30.12 in 10.0 mi NNW 8.1 mph - N/A   Clear
6:55 PM 29.3 °F 21.5 °F 23.9 °F 80% 30.13 in 10.0 mi NNW 8.1 mph - N/A   Clear
7:15 PM 28.4 °F 22.2 °F 23.7 °F 83% 30.13 in 10.0 mi NNW 5.8 mph - N/A   Clear
7:35 PM 28.0 °F 22.8 °F 23.5 °F 83% 30.13 in 10.0 mi NNW 4.6 mph - N/A   Clear
7:55 PM 27.5 °F 22.2 °F 23.4 °F 84% 30.13 in 10.0 mi NNW 4.6 mph - N/A   Clear
8:15 PM 26.6 °F 21.2 °F 23.0 °F 86% 30.13 in 10.0 mi NNW 4.6 mph - N/A   Clear
8:35 PM 26.1 °F 21.9 °F 22.6 °F 87% 30.13 in 10.0 mi NNW 3.5 mph - N/A   Clear
8:55 PM 24.8 °F 20.5 °F 21.9 °F 89% 30.12 in 10.0 mi WNW 3.5 mph - N/A   Clear
9:15 PM 25.3 °F 21.1 °F 22.8 °F 90% 30.13 in 10.0 mi WNW 3.5 mph - N/A   Clear
9:35 PM 25.5 °F - 21.9 °F 86% 30.13 in 10.0 mi Calm Calm - N/A   Clear
9:55 PM 24.8 °F 20.5 °F 21.2 °F 86% 30.13 in 10.0 mi West 3.5 mph - N/A   Clear
10:15 PM 23.9 °F 19.5 °F 21.2 °F 89% 30.13 in 10.0 mi WSW 3.5 mph - N/A   Clear
10:35 PM 24.8 °F 20.5 °F 21.6 °F 87% 30.13 in 10.0 mi WSW 3.5 mph - N/A   Clear
10:55 PM 24.3 °F 17.3 °F 21.2 °F 88% 30.14 in 10.0 mi WSW 5.8 mph - N/A   Clear
11:15 PM 24.8 °F 19.1 °F 21.7 °F 88% 30.15 in 10.0 mi SW 4.6 mph - N/A   Clear
11:35 PM 24.3 °F 19.9 °F 21.0 °F 87% 30.15 in 10.0 mi SW 3.5 mph - N/A   Clear
11:55 PM 23.9 °F 19.5 °F 21.0 °F 89% 30.14 in 10.0 mi SW 3.5 mph - N/A   Clear